CheckWX is a tool to help pilots better visualize weather data.  It is not intended as a substitute for an official pre-flight weather briefing.

03:18:42 UTC

KGSO METAR
Piedmont Triad International Airport
Greensboro, North Carolina, USA
Current

25 mins ago

KGSO 270254Z 26005KT 10SM BKN250 25/17 A3002 RMK AO2 SLP152 T02500172 53004
Observed
May-27 @ 02:54 UTC
Wind
  • 260° at 5 KTS
Visibility
10 SM
Flight Rules
VFR
Cloud Levels
  • Broken at 25,000' AGL
Temperature
25°C / 77°F
Dewpoint
17°C / 63°F
Humidity
61%
Altimeter
30.02" Hg
Pressure
1016.62 hPa
Previous

1 hour ago

KGSO 270154Z 27005KT 10SM BKN250 26/17 A3001 RMK AO2 SLP150 T02610167
Observed
May-27 @ 01:54 UTC
Wind
  • 270° at 5 KTS
Visibility
10 SM
Flight Rules
VFR
Cloud Levels
  • Broken at 25,000' AGL
Temperature
26°C / 79°F
Dewpoint
17°C / 63°F
Humidity
58%
Altimeter
30.01" Hg
Pressure
1016.22 hPa
Previous

2 hours ago

KGSO 270054Z 23003KT 10SM FEW070 BKN250 28/16 A3000 RMK AO2 SLP146 T02780156
Observed
May-27 @ 00:54 UTC
Wind
  • 230° at 3 KTS
Visibility
10 SM
Flight Rules
VFR
Cloud Levels
  • Few at 7,000' AGL
  • Broken at 25,000' AGL
Temperature
28°C / 82°F
Dewpoint
16°C / 61°F
Heat Index
28°C / 82°F
Humidity
48%
Altimeter
30" Hg
Pressure
1015.92 hPa